createdAt,value
2019-02-03T00:01:06.963Z,46.80
2019-02-03T00:03:37.934Z,46.60
2019-02-03T00:06:07.177Z,47.83
2019-02-03T00:08:35.725Z,45.80
2019-02-03T00:11:04.592Z,44.03
2019-02-03T00:13:33.531Z,42.60
2019-02-03T00:16:02.202Z,45.37
2019-02-03T00:18:31.177Z,40.70
2019-02-03T00:21:00.067Z,40.30
2019-02-03T00:23:28.786Z,36.33
2019-02-03T00:25:57.466Z,36.33
2019-02-03T00:28:26.028Z,35.20
2019-02-03T00:30:54.572Z,37.47
2019-02-03T00:33:23.134Z,39.23
2019-02-03T00:35:51.670Z,36.33
2019-02-03T00:38:24.488Z,40.00
2019-02-03T00:40:50.422Z,36.20
2019-02-03T00:43:18.976Z,36.57
2019-02-03T00:45:47.527Z,31.60
2019-02-03T00:48:16.109Z,34.50
2019-02-03T00:50:44.646Z,36.57
2019-02-03T00:53:13.282Z,34.63
2019-02-03T00:55:42.550Z,32.43
2019-02-03T00:58:11.182Z,32.80
2019-02-03T01:00:40.122Z,34.33
2019-02-03T01:03:08.853Z,29.53
2019-02-03T01:05:37.447Z,36.60
2019-02-03T01:08:06.858Z,31.40
2019-02-03T01:10:35.398Z,29.47
2019-02-03T01:13:04.202Z,30.23
2019-02-03T01:15:32.801Z,25.93
2019-02-03T01:18:01.369Z,35.33
2019-02-03T01:20:29.982Z,29.40
2019-02-03T01:22:58.539Z,29.70
2019-02-03T01:25:27.138Z,38.20
2019-02-03T01:27:55.677Z,34.70
2019-02-03T01:30:24.777Z,30.87
2019-02-03T01:32:53.320Z,32.93
2019-02-03T01:35:21.949Z,34.60
2019-02-03T01:37:50.798Z,33.47
2019-02-03T01:40:20.198Z,26.50
2019-02-03T01:42:48.804Z,29.60
2019-02-03T01:45:19.301Z,29.00
2019-02-03T01:47:47.906Z,31.73
2019-02-03T01:50:16.626Z,31.60
2019-02-03T01:52:45.795Z,35.37
2019-02-03T01:55:23.002Z,34.23
2019-02-03T01:57:51.541Z,36.13
2019-02-03T02:00:25.014Z,34.50
2019-02-03T02:02:53.551Z,29.20
2019-02-03T02:05:22.261Z,31.70
2019-02-03T02:07:52.020Z,36.03
2019-02-03T02:10:28.555Z,40.53
2019-02-03T02:12:57.169Z,39.03
2019-02-03T02:15:25.797Z,42.47
2019-02-03T02:17:54.332Z,42.60
2019-02-03T02:20:24.925Z,48.10
2019-02-03T02:22:53.600Z,40.77
2019-02-03T02:25:22.301Z,48.90
2019-02-03T02:27:50.970Z,39.20
2019-02-03T02:30:22.947Z,43.90
2019-02-03T02:32:52.021Z,43.13
2019-02-03T02:35:20.662Z,52.20
2019-02-03T02:37:49.342Z,47.07
2019-02-03T02:40:20.983Z,51.37
2019-02-03T02:42:49.577Z,47.47
2019-02-03T02:45:18.682Z,49.83
2019-02-03T02:47:47.458Z,49.07
2019-02-03T02:50:27.817Z,49.83
2019-02-03T02:52:56.638Z,51.30
2019-02-03T02:55:25.522Z,50.67
2019-02-03T02:57:54.056Z,60.97
2019-02-03T03:00:24.470Z,57.33
2019-02-03T03:02:53.141Z,47.83
2019-02-03T03:05:21.859Z,44.03
2019-02-03T03:07:50.537Z,63.40
2019-02-03T03:10:20.541Z,59.40
2019-02-03T03:12:49.349Z,61.73
2019-02-03T03:15:19.762Z,58.70
2019-02-03T03:17:48.936Z,56.53
2019-02-03T03:20:20.145Z,56.63
2019-02-03T03:22:49.054Z,51.00
2019-02-03T03:25:19.762Z,50.77
2019-02-03T03:27:48.431Z,54.90
2019-02-03T03:30:28.917Z,51.70
2019-02-03T03:32:57.847Z,54.30
2019-02-03T03:35:27.137Z,43.73
2019-02-03T03:37:55.807Z,52.40
2019-02-03T03:40:26.509Z,51.90
2019-02-03T03:42:55.196Z,51.90
2019-02-03T03:45:23.866Z,47.77
2019-02-03T03:47:52.572Z,47.33
2019-02-03T03:50:21.178Z,53.40
2019-02-03T03:52:49.773Z,53.20
2019-02-03T03:55:18.571Z,54.87
2019-02-03T03:57:47.487Z,44.70
2019-02-03T04:00:21.657Z,48.60
2019-02-03T04:02:51.072Z,56.47
2019-02-03T04:05:19.599Z,51.53
2019-02-03T04:07:48.162Z,48.60
2019-02-03T04:10:19.770Z,43.40
2019-02-03T04:12:48.343Z,52.70
2019-02-03T04:15:20.919Z,60.90
2019-02-03T04:17:49.594Z,48.67
2019-02-03T04:20:32.234Z,57.50
2019-02-03T04:23:00.809Z,54.17
2019-02-03T04:25:29.635Z,47.27
2019-02-03T04:27:58.508Z,46.70
2019-02-03T04:30:27.780Z,51.03
2019-02-03T04:32:56.707Z,52.20
2019-02-03T04:35:25.257Z,55.50
2019-02-03T04:37:55.361Z,48.50
2019-02-03T04:40:23.973Z,46.40
2019-02-03T04:42:52.671Z,47.27
2019-02-03T04:45:22.730Z,49.70
2019-02-03T04:47:51.760Z,41.90
2019-02-03T04:50:21.649Z,49.03
2019-02-03T04:52:50.565Z,42.97
2019-02-03T04:55:21.049Z,40.23
2019-02-03T04:57:49.689Z,48.77
2019-02-03T05:00:23.026Z,44.97
2019-02-03T05:02:51.660Z,42.07
2019-02-03T05:05:20.845Z,47.57
2019-02-03T05:07:49.461Z,44.40
2019-02-03T05:10:18.850Z,44.10
2019-02-03T05:12:47.487Z,48.57
2019-02-03T05:15:18.174Z,43.73
2019-02-03T05:17:46.710Z,47.20
2019-02-03T05:20:20.839Z,47.10
2019-02-03T05:22:49.717Z,46.43
2019-02-03T05:25:18.288Z,44.37
2019-02-03T05:27:47.295Z,45.90
2019-02-03T05:30:18.762Z,42.50
2019-02-03T05:32:47.309Z,45.57
2019-02-03T05:35:15.879Z,44.30
2019-02-03T05:37:44.412Z,50.03
2019-02-03T05:40:17.423Z,48.00
2019-02-03T05:42:46.127Z,40.30
2019-02-03T05:45:22.617Z,41.60
2019-02-03T05:47:51.453Z,50.93
2019-02-03T05:50:21.507Z,42.20
2019-02-03T05:52:50.071Z,50.73
2019-02-03T05:55:19.896Z,46.87
2019-02-03T05:57:48.700Z,46.20
2019-02-03T06:00:24.546Z,45.57
2019-02-03T06:02:53.086Z,37.30
2019-02-03T06:05:21.650Z,47.27
2019-02-03T06:07:50.191Z,39.93
2019-02-03T06:10:19.019Z,40.73
2019-02-03T06:12:47.557Z,39.53
2019-02-03T06:15:16.557Z,41.37
2019-02-03T06:17:45.242Z,41.93
2019-02-03T06:20:16.345Z,37.63
2019-02-03T06:22:45.521Z,47.73
2019-02-03T06:25:15.050Z,40.00
2019-02-03T06:27:43.658Z,41.43
2019-02-03T06:30:27.149Z,46.50
2019-02-03T06:32:55.680Z,41.77
2019-02-03T06:35:24.250Z,38.67
2019-02-03T06:37:53.118Z,36.37
2019-02-03T06:40:21.862Z,43.97
2019-02-03T06:42:50.443Z,34.33
2019-02-03T06:45:36.902Z,32.93
2019-02-03T06:48:05.443Z,38.30
2019-02-03T06:50:34.409Z,35.40
2019-02-03T06:53:02.949Z,37.23
2019-02-03T06:55:31.818Z,31.03
2019-02-03T06:58:00.456Z,32.83
2019-02-03T07:00:28.994Z,38.93
2019-02-03T07:02:57.562Z,32.20
2019-02-03T07:05:26.515Z,36.87
2019-02-03T07:07:55.085Z,41.27
2019-02-03T07:10:23.630Z,37.87
2019-02-03T07:12:52.195Z,37.60
2019-02-03T07:15:20.740Z,39.63
2019-02-03T07:17:49.372Z,38.43
2019-02-03T07:20:19.153Z,34.47
2019-02-03T07:22:47.717Z,33.33
2019-02-03T07:25:16.263Z,34.67
2019-02-03T07:27:44.829Z,35.60
2019-02-03T07:30:21.019Z,36.47
2019-02-03T07:32:49.585Z,35.73
2019-02-03T07:35:18.123Z,35.47
2019-02-03T07:37:46.696Z,39.40
2019-02-03T07:40:20.204Z,43.30
2019-02-03T07:42:48.837Z,34.63
2019-02-03T07:45:17.382Z,36.47
2019-02-03T07:47:46.318Z,38.43
2019-02-03T07:50:16.440Z,33.40
2019-02-03T07:52:45.083Z,37.77
2019-02-03T07:55:15.008Z,33.20
2019-02-03T07:57:43.715Z,34.57
2019-02-03T08:00:14.858Z,36.73
2019-02-03T08:02:43.425Z,30.33
2019-02-03T08:05:12.703Z,35.37
2019-02-03T08:07:41.274Z,37.93
2019-02-03T08:10:27.781Z,40.40
2019-02-03T08:12:48.644Z,29.53
2019-02-03T08:15:18.418Z,34.00
2019-02-03T08:17:47.216Z,33.60
2019-02-03T08:20:24.393Z,29.03
2019-02-03T08:22:52.955Z,32.37
2019-02-03T08:25:21.561Z,33.57
2019-02-03T08:27:50.198Z,30.40
2019-02-03T08:30:24.347Z,36.57
2019-02-03T08:32:52.911Z,36.33
2019-02-03T08:35:21.519Z,36.37
2019-02-03T08:37:50.091Z,34.80
2019-02-03T08:40:20.808Z,33.97
2019-02-03T08:42:49.475Z,34.23
2019-02-03T08:45:20.267Z,28.77
2019-02-03T08:47:49.259Z,31.80
2019-02-03T08:50:20.899Z,34.67
2019-02-03T08:52:51.473Z,34.17
2019-02-03T08:55:20.047Z,33.60
2019-02-03T08:57:48.593Z,36.93
2019-02-03T09:00:35.709Z,33.60
2019-02-03T09:03:04.339Z,36.43
2019-02-03T09:05:32.874Z,31.70
2019-02-03T09:08:01.418Z,28.23
2019-02-03T09:10:30.059Z,31.93
2019-02-03T09:12:58.594Z,34.93
2019-02-03T09:15:28.500Z,27.47
2019-02-03T09:17:57.119Z,35.90
2019-02-03T09:20:33.796Z,28.63
2019-02-03T09:23:02.474Z,28.63
2019-02-03T09:25:31.173Z,27.37
2019-02-03T09:27:59.783Z,32.27
2019-02-03T09:30:30.863Z,34.90
2019-02-03T09:32:59.544Z,29.97
2019-02-03T09:35:28.386Z,33.17
2019-02-03T09:37:57.061Z,24.93
2019-02-03T09:40:27.774Z,32.63
2019-02-03T09:42:56.651Z,31.47
2019-02-03T09:45:25.354Z,27.87
2019-02-03T09:47:53.966Z,27.13
2019-02-03T09:50:27.653Z,30.40
2019-02-03T09:52:57.825Z,27.23
2019-02-03T09:55:26.457Z,30.27
2019-02-03T09:57:55.746Z,32.70
2019-02-03T10:00:36.199Z,36.70
2019-02-03T10:03:12.931Z,29.77
2019-02-03T10:05:41.495Z,33.07
2019-02-03T10:08:10.108Z,32.57
2019-02-03T10:10:42.419Z,28.80
2019-02-03T10:13:11.394Z,32.07
2019-02-03T10:15:39.957Z,33.23
2019-02-03T10:18:09.834Z,35.63
2019-02-03T10:20:38.562Z,33.53
2019-02-03T10:23:07.618Z,30.00
2019-02-03T10:25:36.642Z,33.37
2019-02-03T10:28:05.618Z,27.60
2019-02-03T10:30:34.255Z,29.33
2019-02-03T10:33:02.867Z,26.10
2019-02-03T10:35:32.960Z,29.70
2019-02-03T10:38:01.797Z,29.93
2019-02-03T10:40:32.906Z,34.20
2019-02-03T10:43:02.092Z,37.40
2019-02-03T10:45:31.270Z,32.53
2019-02-03T10:47:59.898Z,28.93
2019-02-03T10:50:30.677Z,32.60
2019-02-03T10:52:59.681Z,26.40
2019-02-03T10:55:28.294Z,31.83
2019-02-03T10:57:57.199Z,29.53
2019-02-03T11:00:28.645Z,27.63
2019-02-03T11:02:57.209Z,26.37
2019-02-03T11:05:28.821Z,28.67
2019-02-03T11:07:57.776Z,28.87
2019-02-03T11:10:27.946Z,27.10
2019-02-03T11:12:56.645Z,27.60
2019-02-03T11:15:25.521Z,27.07
2019-02-03T11:17:54.095Z,28.27
2019-02-03T11:20:33.132Z,26.10
2019-02-03T11:23:02.074Z,23.07
2019-02-03T11:25:32.145Z,30.17
2019-02-03T11:28:00.851Z,32.80
2019-02-03T11:30:30.521Z,28.20
2019-02-03T11:33:06.556Z,25.77
2019-02-03T11:35:31.959Z,24.60
2019-02-03T11:38:00.755Z,29.30
2019-02-03T11:40:34.941Z,25.33
2019-02-03T11:43:04.045Z,28.03
2019-02-03T11:45:37.889Z,27.53
2019-02-03T11:48:09.899Z,30.20
2019-02-03T11:50:41.016Z,24.30
2019-02-03T11:53:11.769Z,21.53
2019-02-03T11:55:40.386Z,27.60
2019-02-03T11:58:10.087Z,20.83
2019-02-03T12:00:38.760Z,26.17
2019-02-03T12:03:07.979Z,27.60
2019-02-03T12:05:36.510Z,22.70
2019-02-03T12:08:05.719Z,26.53
2019-02-03T12:10:34.395Z,28.10
2019-02-03T12:13:03.102Z,21.83
2019-02-03T12:15:31.773Z,22.97
2019-02-03T12:18:00.401Z,21.70
2019-02-03T12:20:29.014Z,24.50
2019-02-03T12:22:57.861Z,24.43
2019-02-03T12:25:41.803Z,21.50
2019-02-03T12:28:11.010Z,22.53
2019-02-03T12:30:39.714Z,21.93
2019-02-03T12:33:08.613Z,20.40
2019-02-03T12:35:37.766Z,23.07
2019-02-03T12:38:06.426Z,20.67
2019-02-03T12:40:41.506Z,19.13
2019-02-03T12:43:10.149Z,14.60
2019-02-03T12:45:38.674Z,23.57
2019-02-03T12:48:08.587Z,21.47
2019-02-03T12:50:37.480Z,20.40
2019-02-03T12:53:06.411Z,24.53
2019-02-03T12:55:35.091Z,17.90
2019-02-03T12:58:04.704Z,24.27
2019-02-03T13:00:35.373Z,19.70
2019-02-03T13:03:05.342Z,20.30
2019-02-03T13:05:34.055Z,16.30
2019-02-03T13:08:03.095Z,14.17
2019-02-03T13:10:33.978Z,16.03
2019-02-03T13:13:02.678Z,16.33
2019-02-03T13:15:36.920Z,16.63
2019-02-03T13:18:06.980Z,15.57
2019-02-03T13:20:36.331Z,14.17
2019-02-03T13:23:05.729Z,14.37
2019-02-03T13:25:34.412Z,20.73
2019-02-03T13:28:03.015Z,18.40
2019-02-03T13:30:40.366Z,19.47
2019-02-03T13:33:09.731Z,18.30
2019-02-03T13:35:38.268Z,19.47
2019-02-03T13:38:07.147Z,17.30
2019-02-03T13:40:35.783Z,17.43
2019-02-03T13:43:05.154Z,20.80
2019-02-03T13:45:34.290Z,22.90
2019-02-03T13:48:02.961Z,24.57
2019-02-03T13:50:31.531Z,18.37
2019-02-03T13:53:00.076Z,20.47
2019-02-03T13:55:28.979Z,19.10
2019-02-03T13:57:57.757Z,15.10
2019-02-03T14:00:32.718Z,16.33
2019-02-03T14:03:01.329Z,19.17
2019-02-03T14:05:29.966Z,18.73
2019-02-03T14:07:58.570Z,18.50
2019-02-03T14:10:34.833Z,21.00
2019-02-03T14:13:04.599Z,16.77
2019-02-03T14:15:33.234Z,18.77
2019-02-03T14:18:01.914Z,15.53
2019-02-03T14:20:33.330Z,15.40
2019-02-03T14:23:01.862Z,17.30
2019-02-03T14:25:30.899Z,15.67
2019-02-03T14:27:59.681Z,22.87
2019-02-03T14:30:41.073Z,15.30
2019-02-03T14:33:09.713Z,14.40
2019-02-03T14:35:38.342Z,11.80
2019-02-03T14:38:07.219Z,9.83
2019-02-03T14:40:35.847Z,12.13
2019-02-03T14:43:04.932Z,12.20
2019-02-03T14:45:33.701Z,11.07
2019-02-03T14:48:02.306Z,11.27
2019-02-03T14:50:30.944Z,10.07
2019-02-03T14:53:02.529Z,10.80
2019-02-03T14:55:33.726Z,9.37
2019-02-03T14:58:02.340Z,14.30
2019-02-03T15:00:36.272Z,7.97
2019-02-03T15:03:10.167Z,7.50
2019-02-03T15:05:38.793Z,8.80
2019-02-03T15:08:08.380Z,9.03
2019-02-03T15:10:37.284Z,10.13
2019-02-03T15:13:14.167Z,8.03
2019-02-03T15:15:37.299Z,8.47
2019-02-03T15:18:06.718Z,7.43
2019-02-03T15:20:35.342Z,8.20
2019-02-03T15:23:04.342Z,6.20
2019-02-03T15:25:32.874Z,6.63
2019-02-03T15:28:01.779Z,12.50
2019-02-03T15:30:39.577Z,7.20
2019-02-03T15:33:08.354Z,16.50
2019-02-03T15:35:37.159Z,19.80
2019-02-03T15:38:06.358Z,16.20
2019-02-03T15:40:34.898Z,28.33
2019-02-03T15:43:03.802Z,9.00
2019-02-03T15:45:32.402Z,8.60
2019-02-03T15:48:00.953Z,6.30
2019-02-03T15:50:30.229Z,6.43
2019-02-03T15:52:58.874Z,4.60
2019-02-03T15:55:30.123Z,11.17
2019-02-03T15:57:58.917Z,9.20
2019-02-03T16:00:32.830Z,5.40
2019-02-03T16:03:01.450Z,8.33
2019-02-03T16:05:31.037Z,5.40
2019-02-03T16:07:59.601Z,4.83
2019-02-03T16:10:28.763Z,5.67
2019-02-03T16:12:57.319Z,4.70
2019-02-03T16:15:25.935Z,5.70
2019-02-03T16:17:54.493Z,7.17
2019-02-03T16:20:30.203Z,4.27
2019-02-03T16:23:00.340Z,6.80
2019-02-03T16:25:28.980Z,7.67
2019-02-03T16:27:57.682Z,7.47
2019-02-03T16:30:29.129Z,4.03
2019-02-03T16:32:58.234Z,12.33
2019-02-03T16:35:26.769Z,4.13
2019-02-03T16:37:55.582Z,4.83
2019-02-03T16:40:31.526Z,4.00
2019-02-03T16:43:00.223Z,7.10
2019-02-03T16:45:29.192Z,6.80
2019-02-03T16:47:57.804Z,7.20
2019-02-03T16:50:31.079Z,7.03
2019-02-03T16:53:01.734Z,6.00
2019-02-03T16:55:30.701Z,5.60
2019-02-03T16:57:59.341Z,12.80
2019-02-03T17:00:31.908Z,8.87
2019-02-03T17:03:00.706Z,6.27
2019-02-03T17:05:30.785Z,4.47
2019-02-03T17:08:01.795Z,3.47
2019-02-03T17:10:30.459Z,3.70
2019-02-03T17:12:59.022Z,5.00
2019-02-03T17:15:29.885Z,6.10
2019-02-03T17:17:59.020Z,6.70
2019-02-03T17:20:27.839Z,5.77
2019-02-03T17:22:56.737Z,4.97
2019-02-03T17:25:43.314Z,7.23
2019-02-03T17:28:12.271Z,4.40
2019-02-03T17:30:40.813Z,4.50
2019-02-03T17:33:09.513Z,6.33
2019-02-03T17:35:38.199Z,6.10
2019-02-03T17:38:06.839Z,6.33
2019-02-03T17:40:35.454Z,8.40
2019-02-03T17:43:04.674Z,7.80
2019-02-03T17:45:33.202Z,7.37
2019-02-03T17:48:01.732Z,4.43
2019-02-03T17:50:33.790Z,4.30
2019-02-03T17:53:02.394Z,6.13
2019-02-03T17:55:31.029Z,5.40
2019-02-03T17:57:59.874Z,6.60
2019-02-03T18:00:34.240Z,7.63
2019-02-03T18:03:02.779Z,5.30
2019-02-03T18:05:31.668Z,4.77
2019-02-03T18:08:00.198Z,5.33
2019-02-03T18:10:28.830Z,5.37
2019-02-03T18:12:57.371Z,4.37
2019-02-03T18:15:26.397Z,3.10
2019-02-03T18:17:54.933Z,3.20
2019-02-03T18:20:27.651Z,4.13
2019-02-03T18:22:56.313Z,3.20
2019-02-03T18:25:25.276Z,5.30
2019-02-03T18:27:54.868Z,3.67
2019-02-03T18:30:25.345Z,5.37
2019-02-03T18:32:55.264Z,5.23
2019-02-03T18:35:24.119Z,3.80
2019-02-03T18:37:54.225Z,7.53
2019-02-03T18:40:23.328Z,7.80
2019-02-03T18:42:52.130Z,5.70
2019-02-03T18:45:25.697Z,9.60
2019-02-03T18:47:54.365Z,5.63
2019-02-03T18:50:24.368Z,5.43
2019-02-03T18:52:54.208Z,9.40
2019-02-03T18:55:31.711Z,5.37
2019-02-03T18:58:00.296Z,5.43
2019-02-03T19:00:31.538Z,5.10
2019-02-03T19:03:00.206Z,7.03
2019-02-03T19:05:33.760Z,3.33
2019-02-03T19:08:02.634Z,3.67
2019-02-03T19:10:32.920Z,6.07
2019-02-03T19:13:01.396Z,7.93
2019-02-03T19:15:32.389Z,4.80
2019-02-03T19:18:01.470Z,3.97
2019-02-03T19:20:32.605Z,4.20
2019-02-03T19:23:01.401Z,6.07
2019-02-03T19:25:29.931Z,6.33
2019-02-03T19:27:58.494Z,5.50
2019-02-03T19:30:27.472Z,6.23
2019-02-03T19:32:56.099Z,7.80
2019-02-03T19:35:29.830Z,5.10
2019-02-03T19:37:58.390Z,5.43
2019-02-03T19:40:29.633Z,5.80
2019-02-03T19:42:58.189Z,8.33
2019-02-03T19:45:29.733Z,6.53
2019-02-03T19:47:58.647Z,4.97
2019-02-03T19:50:36.036Z,4.90
2019-02-03T19:53:06.231Z,4.87
2019-02-03T19:55:34.831Z,3.80
2019-02-03T19:58:06.800Z,6.03
2019-02-03T20:00:39.953Z,5.30
2019-02-03T20:03:08.579Z,5.73
2019-02-03T20:05:37.110Z,3.07
2019-02-03T20:08:06.718Z,13.73
2019-02-03T20:10:35.987Z,5.13
2019-02-03T20:13:05.295Z,4.13
2019-02-03T20:15:33.826Z,7.10
2019-02-03T20:18:02.401Z,5.07
2019-02-03T20:20:33.059Z,3.77
2019-02-03T20:23:01.698Z,5.63
2019-02-03T20:25:30.776Z,4.37
2019-02-03T20:27:59.331Z,4.27
2019-02-03T20:30:38.106Z,8.20
2019-02-03T20:32:59.623Z,5.80
2019-02-03T20:35:29.554Z,4.03
2019-02-03T20:37:58.548Z,5.60
2019-02-03T20:40:47.938Z,3.93
2019-02-03T20:43:16.775Z,5.63
2019-02-03T20:45:49.357Z,4.77
2019-02-03T20:48:15.817Z,6.33
2019-02-03T20:50:44.411Z,4.97
2019-02-03T20:53:13.115Z,7.90
2019-02-03T20:55:41.642Z,6.60
2019-02-03T20:58:10.274Z,6.53
2019-02-03T21:00:38.952Z,4.90
2019-02-03T21:03:07.845Z,4.80
2019-02-03T21:05:36.519Z,6.00
2019-02-03T21:08:05.422Z,4.03
2019-02-03T21:10:33.950Z,8.30
2019-02-03T21:13:10.645Z,5.20
2019-02-03T21:15:34.176Z,6.60
2019-02-03T21:18:02.926Z,6.20
2019-02-03T21:20:33.705Z,11.37
2019-02-03T21:23:02.402Z,5.33
2019-02-03T21:25:31.014Z,13.03
2019-02-03T21:27:59.613Z,15.40
2019-02-03T21:30:30.714Z,10.60
2019-02-03T21:32:59.685Z,7.60
2019-02-03T21:35:28.385Z,6.73
2019-02-03T21:37:56.914Z,5.40
2019-02-03T21:40:30.177Z,9.20
2019-02-03T21:42:58.714Z,7.17
2019-02-03T21:45:27.612Z,14.90
2019-02-03T21:47:56.151Z,21.17
2019-02-03T21:50:26.446Z,11.07
2019-02-03T21:52:54.981Z,14.10
2019-02-03T21:55:23.683Z,12.77
2019-02-03T21:57:52.216Z,8.70
2019-02-03T22:00:29.201Z,6.90
2019-02-03T22:02:57.870Z,5.83
2019-02-03T22:05:27.473Z,6.37
2019-02-03T22:07:56.072Z,6.10
2019-02-03T22:10:29.705Z,7.50
2019-02-03T22:12:58.746Z,5.43
2019-02-03T22:15:27.382Z,6.90
2019-02-03T22:17:55.917Z,7.70
2019-02-03T22:20:25.031Z,7.73
2019-02-03T22:22:53.795Z,8.10
2019-02-03T22:25:22.424Z,12.37
2019-02-03T22:27:51.422Z,7.27
2019-02-03T22:30:22.318Z,8.90
2019-02-03T22:32:50.918Z,8.00
2019-02-03T22:35:19.543Z,5.30
2019-02-03T22:37:48.081Z,6.23
2019-02-03T22:40:19.159Z,6.30
2019-02-03T22:42:47.755Z,6.67
2019-02-03T22:45:18.949Z,6.67
2019-02-03T22:47:47.621Z,10.00
2019-02-03T22:50:27.602Z,9.60
2019-02-03T22:52:56.895Z,8.50
2019-02-03T22:55:25.757Z,8.57
2019-02-03T22:57:54.362Z,6.93
2019-02-03T23:00:51.952Z,6.30
2019-02-03T23:03:23.718Z,7.93
2019-02-03T23:05:53.426Z,9.13
2019-02-03T23:08:21.965Z,8.17
2019-02-03T23:10:50.610Z,7.20
2019-02-03T23:13:19.213Z,6.73
2019-02-03T23:15:48.383Z,7.40
2019-02-03T23:18:16.923Z,12.73
2019-02-03T23:20:45.556Z,9.57
2019-02-03T23:23:14.077Z,6.60
2019-02-03T23:25:42.644Z,7.93
2019-02-03T23:28:11.171Z,5.50
2019-02-03T23:30:40.026Z,8.00
2019-02-03T23:33:08.635Z,4.57
2019-02-03T23:35:37.191Z,5.43
2019-02-03T23:38:06.001Z,6.90
2019-02-03T23:40:34.630Z,6.23
2019-02-03T23:43:03.235Z,6.40
2019-02-03T23:45:32.190Z,6.70
2019-02-03T23:48:00.721Z,6.70
2019-02-03T23:50:29.281Z,6.00
2019-02-03T23:52:57.814Z,8.77
2019-02-03T23:55:26.402Z,11.93
2019-02-03T23:57:54.932Z,9.50
